Verona Island, Maine
Current Conditions -  °F | °C
As of 3:53 AM on Sunday 23 Nov 2014 (Local Time) from KBGR Reporting Station
Overcast Overcast  
Wind Chill: 36°   Ceiling: 4000
Heat Index: 36°   Visibility: 10mi
Dew Point: 19°   Wind: 3mph
Humidity: 50%   Direction: 200°SSW
Pressure: 29.93"   Gusts: NA
Location:  44.6408°N, 68.7455°W
Report Text: KBGR 230853Z 20003KT 10SM OVC040 02/M07 A2993 RMK AO2 SLP137 T00221072 51005
Loading
Personal Weather Stations






























Interactive Weather Map New forecast layout! Learn more

10-Day Weather Forecast

Advertisements
Track Severe Weather on mobile